sensor_id;sensor_type;location;lat;lon;timestamp;P1;durP1;ratioP1;P2;durP2;ratioP2
12848;SDS011;6493;50.928;7.172;2023-05-08T00:00:47;0.53;;;0.47;;
12848;SDS011;6493;50.928;7.172;2023-05-08T00:05:52;0.50;;;0.50;;
12848;SDS011;6493;50.928;7.172;2023-05-08T00:10:57;0.70;;;0.60;;
12848;SDS011;6493;50.928;7.172;2023-05-08T00:16:00;0.60;;;0.60;;
12848;SDS011;6493;50.928;7.172;2023-05-08T00:21:05;0.80;;;0.80;;
12848;SDS011;6493;50.928;7.172;2023-05-08T00:26:09;0.60;;;0.60;;
12848;SDS011;6493;50.928;7.172;2023-05-08T00:31:12;0.80;;;0.80;;
12848;SDS011;6493;50.928;7.172;2023-05-08T00:36:17;0.60;;;0.60;;
12848;SDS011;6493;50.928;7.172;2023-05-08T00:41:21;0.60;;;0.60;;
12848;SDS011;6493;50.928;7.172;2023-05-08T00:46:25;0.70;;;0.70;;
12848;SDS011;6493;50.928;7.172;2023-05-08T00:51:30;0.80;;;0.80;;
12848;SDS011;6493;50.928;7.172;2023-05-08T00:56:34;0.70;;;0.60;;
12848;SDS011;6493;50.928;7.172;2023-05-08T01:01:40;0.70;;;0.70;;
12848;SDS011;6493;50.928;7.172;2023-05-08T01:06:46;1.87;;;0.80;;
12848;SDS011;6493;50.928;7.172;2023-05-08T01:11:51;0.80;;;0.80;;
12848;SDS011;6493;50.928;7.172;2023-05-08T01:17:05;0.67;;;0.63;;
12848;SDS011;6493;50.928;7.172;2023-05-08T01:22:17;0.60;;;0.60;;
12848;SDS011;6493;50.928;7.172;2023-05-08T01:27:45;0.70;;;0.70;;
12848;SDS011;6493;50.928;7.172;2023-05-08T01:33:07;0.73;;;0.73;;
12848;SDS011;6493;50.928;7.172;2023-05-08T01:38:18;0.67;;;0.60;;
12848;SDS011;6493;50.928;7.172;2023-05-08T01:43:29;0.83;;;0.83;;
12848;SDS011;6493;50.928;7.172;2023-05-08T01:48:43;2.00;;;1.03;;
12848;SDS011;6493;50.928;7.172;2023-05-08T01:53:52;1.50;;;1.40;;
12848;SDS011;6493;50.928;7.172;2023-05-08T01:59:01;1.73;;;1.47;;
12848;SDS011;6493;50.928;7.172;2023-05-08T02:04:08;1.50;;;1.40;;
12848;SDS011;6493;50.928;7.172;2023-05-08T02:09:13;1.40;;;1.10;;
12848;SDS011;6493;50.928;7.172;2023-05-08T02:14:18;1.07;;;1.00;;
12848;SDS011;6493;50.928;7.172;2023-05-08T02:19:25;1.40;;;1.30;;
12848;SDS011;6493;50.928;7.172;2023-05-08T02:24:31;1.47;;;1.37;;
12848;SDS011;6493;50.928;7.172;2023-05-08T02:29:35;1.57;;;1.30;;
12848;SDS011;6493;50.928;7.172;2023-05-08T02:34:41;1.63;;;1.40;;
12848;SDS011;6493;50.928;7.172;2023-05-08T02:40:03;1.27;;;1.17;;
12848;SDS011;6493;50.928;7.172;2023-05-08T02:45:10;1.83;;;1.40;;
12848;SDS011;6493;50.928;7.172;2023-05-08T02:50:17;1.40;;;1.30;;
12848;SDS011;6493;50.928;7.172;2023-05-08T02:55:29;1.67;;;1.40;;
12848;SDS011;6493;50.928;7.172;2023-05-08T03:00:40;1.40;;;1.30;;
12848;SDS011;6493;50.928;7.172;2023-05-08T03:05:52;1.40;;;1.30;;
12848;SDS011;6493;50.928;7.172;2023-05-08T03:11:00;1.13;;;1.07;;
12848;SDS011;6493;50.928;7.172;2023-05-08T03:16:09;1.20;;;1.10;;
12848;SDS011;6493;50.928;7.172;2023-05-08T03:21:18;1.30;;;1.20;;
12848;SDS011;6493;50.928;7.172;2023-05-08T03:26:23;1.30;;;1.20;;
12848;SDS011;6493;50.928;7.172;2023-05-08T03:31:27;1.20;;;1.10;;
12848;SDS011;6493;50.928;7.172;2023-05-08T03:36:37;1.53;;;1.43;;
12848;SDS011;6493;50.928;7.172;2023-05-08T03:41:41;1.47;;;1.37;;
12848;SDS011;6493;50.928;7.172;2023-05-08T03:46:47;1.43;;;1.33;;
12848;SDS011;6493;50.928;7.172;2023-05-08T03:51:53;1.90;;;1.53;;
12848;SDS011;6493;50.928;7.172;2023-05-08T03:56:59;1.80;;;1.70;;
12848;SDS011;6493;50.928;7.172;2023-05-08T04:02:07;1.90;;;1.80;;
12848;SDS011;6493;50.928;7.172;2023-05-08T04:07:21;1.70;;;1.60;;
12848;SDS011;6493;50.928;7.172;2023-05-08T04:12:31;2.03;;;1.93;;
12848;SDS011;6493;50.928;7.172;2023-05-08T04:17:41;2.60;;;2.20;;
12848;SDS011;6493;50.928;7.172;2023-05-08T04:22:52;2.40;;;1.80;;
12848;SDS011;6493;50.928;7.172;2023-05-08T04:27:58;2.87;;;2.67;;
12848;SDS011;6493;50.928;7.172;2023-05-08T04:33:04;2.73;;;2.53;;
12848;SDS011;6493;50.928;7.172;2023-05-08T04:38:10;2.80;;;2.60;;
12848;SDS011;6493;50.928;7.172;2023-05-08T04:43:15;2.83;;;2.57;;
12848;SDS011;6493;50.928;7.172;2023-05-08T04:48:18;3.50;;;3.20;;
12848;SDS011;6493;50.928;7.172;2023-05-08T04:53:23;2.70;;;2.47;;
12848;SDS011;6493;50.928;7.172;2023-05-08T04:58:27;3.00;;;2.80;;
12848;SDS011;6493;50.928;7.172;2023-05-08T05:03:32;3.07;;;2.80;;
12848;SDS011;6493;50.928;7.172;2023-05-08T05:08:37;2.43;;;2.23;;
12848;SDS011;6493;50.928;7.172;2023-05-08T05:13:40;1.93;;;1.83;;
12848;SDS011;6493;50.928;7.172;2023-05-08T05:18:44;2.07;;;1.90;;
12848;SDS011;6493;50.928;7.172;2023-05-08T05:23:49;1.40;;;1.30;;
12848;SDS011;6493;50.928;7.172;2023-05-08T05:28:54;1.40;;;1.30;;
12848;SDS011;6493;50.928;7.172;2023-05-08T05:33:57;1.60;;;1.50;;
12848;SDS011;6493;50.928;7.172;2023-05-08T05:39:02;1.50;;;1.40;;
12848;SDS011;6493;50.928;7.172;2023-05-08T05:44:07;1.93;;;1.83;;
12848;SDS011;6493;50.928;7.172;2023-05-08T05:49:11;2.20;;;2.00;;
12848;SDS011;6493;50.928;7.172;2023-05-08T05:54:16;2.30;;;2.20;;
12848;SDS011;6493;50.928;7.172;2023-05-08T05:59:20;2.03;;;1.93;;
12848;SDS011;6493;50.928;7.172;2023-05-08T06:04:24;2.30;;;2.10;;
12848;SDS011;6493;50.928;7.172;2023-05-08T06:09:30;2.70;;;2.50;;
12848;SDS011;6493;50.928;7.172;2023-05-08T06:14:33;3.33;;;2.10;;
12848;SDS011;6493;50.928;7.172;2023-05-08T06:19:37;2.27;;;2.13;;
12848;SDS011;6493;50.928;7.172;2023-05-08T06:24:42;2.40;;;2.20;;
12848;SDS011;6493;50.928;7.172;2023-05-08T06:29:45;2.60;;;2.40;;
12848;SDS011;6493;50.928;7.172;2023-05-08T06:34:51;2.23;;;2.13;;
12848;SDS011;6493;50.928;7.172;2023-05-08T06:39:56;3.00;;;2.80;;
12848;SDS011;6493;50.928;7.172;2023-05-08T06:45:12;2.30;;;2.20;;
12848;SDS011;6493;50.928;7.172;2023-05-08T06:50:16;2.27;;;2.17;;
12848;SDS011;6493;50.928;7.172;2023-05-08T06:55:22;2.00;;;1.90;;
12848;SDS011;6493;50.928;7.172;2023-05-08T07:00:25;2.73;;;2.53;;
12848;SDS011;6493;50.928;7.172;2023-05-08T07:05:29;2.53;;;2.33;;
12848;SDS011;6493;50.928;7.172;2023-05-08T07:10:34;2.10;;;2.00;;
12848;SDS011;6493;50.928;7.172;2023-05-08T07:15:38;2.30;;;2.10;;
12848;SDS011;6493;50.928;7.172;2023-05-08T07:20:41;1.97;;;1.87;;
12848;SDS011;6493;50.928;7.172;2023-05-08T07:25:46;3.37;;;2.80;;
12848;SDS011;6493;50.928;7.172;2023-05-08T07:30:50;3.27;;;2.97;;
12848;SDS011;6493;50.928;7.172;2023-05-08T07:35:54;2.97;;;2.77;;
12848;SDS011;6493;50.928;7.172;2023-05-08T07:40:58;2.07;;;1.97;;
12848;SDS011;6493;50.928;7.172;2023-05-08T07:46:02;4.37;;;2.93;;
12848;SDS011;6493;50.928;7.172;2023-05-08T07:51:07;2.93;;;2.73;;
12848;SDS011;6493;50.928;7.172;2023-05-08T07:56:13;3.23;;;2.93;;
12848;SDS011;6493;50.928;7.172;2023-05-08T08:01:16;4.00;;;3.70;;
12848;SDS011;6493;50.928;7.172;2023-05-08T08:06:20;3.50;;;3.20;;
12848;SDS011;6493;50.928;7.172;2023-05-08T08:11:25;3.70;;;3.40;;
12848;SDS011;6493;50.928;7.172;2023-05-08T08:16:28;2.87;;;2.67;;
12848;SDS011;6493;50.928;7.172;2023-05-08T08:21:35;3.70;;;3.40;;
12848;SDS011;6493;50.928;7.172;2023-05-08T08:26:44;2.50;;;2.30;;
12848;SDS011;6493;50.928;7.172;2023-05-08T08:31:48;3.20;;;3.00;;
12848;SDS011;6493;50.928;7.172;2023-05-08T08:36:52;3.83;;;3.53;;
12848;SDS011;6493;50.928;7.172;2023-05-08T08:41:57;2.70;;;2.50;;
12848;SDS011;6493;50.928;7.172;2023-05-08T08:47:00;3.17;;;2.97;;
12848;SDS011;6493;50.928;7.172;2023-05-08T08:52:10;2.67;;;2.47;;
12848;SDS011;6493;50.928;7.172;2023-05-08T08:57:20;2.80;;;2.60;;
12848;SDS011;6493;50.928;7.172;2023-05-08T09:02:25;2.67;;;2.47;;
12848;SDS011;6493;50.928;7.172;2023-05-08T09:07:29;3.00;;;2.80;;
12848;SDS011;6493;50.928;7.172;2023-05-08T09:12:35;3.17;;;2.97;;
12848;SDS011;6493;50.928;7.172;2023-05-08T09:17:41;2.77;;;2.57;;
12848;SDS011;6493;50.928;7.172;2023-05-08T09:22:45;2.60;;;2.40;;
12848;SDS011;6493;50.928;7.172;2023-05-08T09:27:51;2.40;;;2.20;;
12848;SDS011;6493;50.928;7.172;2023-05-08T09:32:54;2.53;;;2.33;;
12848;SDS011;6493;50.928;7.172;2023-05-08T09:38:04;2.37;;;2.20;;
12848;SDS011;6493;50.928;7.172;2023-05-08T09:43:11;3.33;;;3.00;;
12848;SDS011;6493;50.928;7.172;2023-05-08T09:48:15;2.57;;;2.40;;
12848;SDS011;6493;50.928;7.172;2023-05-08T09:53:18;2.27;;;2.17;;
12848;SDS011;6493;50.928;7.172;2023-05-08T09:58:37;2.03;;;1.93;;
12848;SDS011;6493;50.928;7.172;2023-05-08T10:03:45;1.80;;;1.70;;
12848;SDS011;6493;50.928;7.172;2023-05-08T10:09:04;2.20;;;2.10;;
12848;SDS011;6493;50.928;7.172;2023-05-08T10:14:10;2.00;;;1.90;;
12848;SDS011;6493;50.928;7.172;2023-05-08T10:19:14;1.60;;;1.50;;
12848;SDS011;6493;50.928;7.172;2023-05-08T10:24:19;2.43;;;2.23;;
12848;SDS011;6493;50.928;7.172;2023-05-08T10:29:31;1.93;;;1.83;;
12848;SDS011;6493;50.928;7.172;2023-05-08T10:34:37;3.07;;;2.87;;
12848;SDS011;6493;50.928;7.172;2023-05-08T10:39:43;3.07;;;2.87;;
12848;SDS011;6493;50.928;7.172;2023-05-08T10:44:48;2.70;;;2.50;;
12848;SDS011;6493;50.928;7.172;2023-05-08T10:49:54;4.13;;;3.77;;
12848;SDS011;6493;50.928;7.172;2023-05-08T10:55:18;3.10;;;2.90;;
12848;SDS011;6493;50.928;7.172;2023-05-08T11:00:26;3.53;;;3.23;;
12848;SDS011;6493;50.928;7.172;2023-05-08T11:05:43;3.17;;;2.97;;
12848;SDS011;6493;50.928;7.172;2023-05-08T11:10:49;3.23;;;2.93;;
12848;SDS011;6493;50.928;7.172;2023-05-08T11:16:04;2.80;;;2.60;;
12848;SDS011;6493;50.928;7.172;2023-05-08T11:21:13;3.00;;;2.80;;
12848;SDS011;6493;50.928;7.172;2023-05-08T11:26:17;3.53;;;3.23;;
12848;SDS011;6493;50.928;7.172;2023-05-08T11:31:22;2.50;;;2.30;;
12848;SDS011;6493;50.928;7.172;2023-05-08T11:36:26;3.40;;;3.10;;
12848;SDS011;6493;50.928;7.172;2023-05-08T11:41:30;2.80;;;2.60;;
12848;SDS011;6493;50.928;7.172;2023-05-08T11:46:37;2.23;;;2.13;;
12848;SDS011;6493;50.928;7.172;2023-05-08T11:51:42;2.60;;;2.40;;
12848;SDS011;6493;50.928;7.172;2023-05-08T11:56:47;2.33;;;2.13;;
12848;SDS011;6493;50.928;7.172;2023-05-08T12:01:53;2.73;;;2.53;;
12848;SDS011;6493;50.928;7.172;2023-05-08T12:07:09;2.50;;;2.30;;
12848;SDS011;6493;50.928;7.172;2023-05-08T12:12:13;2.63;;;2.43;;
12848;SDS011;6493;50.928;7.172;2023-05-08T12:17:18;2.10;;;1.90;;
12848;SDS011;6493;50.928;7.172;2023-05-08T12:22:22;2.87;;;2.53;;
12848;SDS011;6493;50.928;7.172;2023-05-08T12:27:25;1.73;;;1.63;;
12848;SDS011;6493;50.928;7.172;2023-05-08T12:32:30;2.77;;;1.83;;
12848;SDS011;6493;50.928;7.172;2023-05-08T12:37:34;2.57;;;2.27;;
12848;SDS011;6493;50.928;7.172;2023-05-08T12:42:42;3.60;;;3.30;;
12848;SDS011;6493;50.928;7.172;2023-05-08T12:47:48;2.60;;;2.40;;
12848;SDS011;6493;50.928;7.172;2023-05-08T12:52:52;2.83;;;2.63;;
12848;SDS011;6493;50.928;7.172;2023-05-08T12:57:59;2.40;;;2.20;;
12848;SDS011;6493;50.928;7.172;2023-05-08T13:03:05;2.90;;;2.70;;
12848;SDS011;6493;50.928;7.172;2023-05-08T13:08:10;2.47;;;2.33;;
12848;SDS011;6493;50.928;7.172;2023-05-08T13:13:14;2.37;;;2.23;;
12848;SDS011;6493;50.928;7.172;2023-05-08T13:18:22;2.70;;;2.50;;
12848;SDS011;6493;50.928;7.172;2023-05-08T13:23:26;2.80;;;2.60;;
12848;SDS011;6493;50.928;7.172;2023-05-08T13:28:30;2.90;;;2.70;;
12848;SDS011;6493;50.928;7.172;2023-05-08T13:33:35;2.70;;;2.50;;
12848;SDS011;6493;50.928;7.172;2023-05-08T13:38:39;2.90;;;2.60;;
12848;SDS011;6493;50.928;7.172;2023-05-08T13:43:42;2.03;;;1.93;;
12848;SDS011;6493;50.928;7.172;2023-05-08T13:48:47;2.83;;;2.57;;
12848;SDS011;6493;50.928;7.172;2023-05-08T13:53:51;2.40;;;2.20;;
12848;SDS011;6493;50.928;7.172;2023-05-08T13:58:54;3.20;;;3.00;;
12848;SDS011;6493;50.928;7.172;2023-05-08T14:03:59;2.50;;;2.40;;
12848;SDS011;6493;50.928;7.172;2023-05-08T14:09:03;2.43;;;2.23;;
12848;SDS011;6493;50.928;7.172;2023-05-08T14:14:07;6.20;;;3.20;;
12848;SDS011;6493;50.928;7.172;2023-05-08T14:19:11;3.40;;;3.10;;
12848;SDS011;6493;50.928;7.172;2023-05-08T14:24:15;3.17;;;2.97;;
12848;SDS011;6493;50.928;7.172;2023-05-08T14:29:19;4.40;;;3.90;;
12848;SDS011;6493;50.928;7.172;2023-05-08T14:34:24;3.03;;;2.83;;
12848;SDS011;6493;50.928;7.172;2023-05-08T14:39:28;4.03;;;3.63;;
12848;SDS011;6493;50.928;7.172;2023-05-08T14:44:32;3.47;;;3.20;;
12848;SDS011;6493;50.928;7.172;2023-05-08T14:49:37;3.27;;;2.97;;
12848;SDS011;6493;50.928;7.172;2023-05-08T14:54:40;3.40;;;3.20;;
12848;SDS011;6493;50.928;7.172;2023-05-08T14:59:44;3.90;;;3.60;;
12848;SDS011;6493;50.928;7.172;2023-05-08T15:05:09;2.80;;;2.60;;
12848;SDS011;6493;50.928;7.172;2023-05-08T15:10:21;3.10;;;2.90;;
12848;SDS011;6493;50.928;7.172;2023-05-08T15:15:24;3.07;;;2.63;;
12848;SDS011;6493;50.928;7.172;2023-05-08T15:20:29;3.03;;;2.83;;
12848;SDS011;6493;50.928;7.172;2023-05-08T15:25:33;2.57;;;2.20;;
12848;SDS011;6493;50.928;7.172;2023-05-08T15:30:36;2.57;;;2.37;;
12848;SDS011;6493;50.928;7.172;2023-05-08T15:35:41;2.57;;;2.37;;
12848;SDS011;6493;50.928;7.172;2023-05-08T15:40:45;3.27;;;3.03;;
12848;SDS011;6493;50.928;7.172;2023-05-08T15:45:48;2.77;;;2.57;;
12848;SDS011;6493;50.928;7.172;2023-05-08T15:50:53;2.67;;;2.10;;
12848;SDS011;6493;50.928;7.172;2023-05-08T15:55:57;2.63;;;2.43;;
12848;SDS011;6493;50.928;7.172;2023-05-08T16:01:00;2.77;;;2.50;;
12848;SDS011;6493;50.928;7.172;2023-05-08T16:06:06;2.97;;;2.73;;
12848;SDS011;6493;50.928;7.172;2023-05-08T16:11:10;2.00;;;1.90;;
12848;SDS011;6493;50.928;7.172;2023-05-08T16:16:14;2.33;;;2.13;;
12848;SDS011;6493;50.928;7.172;2023-05-08T16:21:19;2.00;;;1.90;;
12848;SDS011;6493;50.928;7.172;2023-05-08T16:26:23;2.30;;;2.20;;
12848;SDS011;6493;50.928;7.172;2023-05-08T16:31:27;3.00;;;2.13;;
12848;SDS011;6493;50.928;7.172;2023-05-08T16:36:32;2.27;;;2.10;;
12848;SDS011;6493;50.928;7.172;2023-05-08T16:41:35;2.17;;;1.97;;
12848;SDS011;6493;50.928;7.172;2023-05-08T16:46:39;1.90;;;1.80;;
12848;SDS011;6493;50.928;7.172;2023-05-08T16:51:44;1.90;;;1.80;;
12848;SDS011;6493;50.928;7.172;2023-05-08T16:56:48;1.63;;;1.53;;
12848;SDS011;6493;50.928;7.172;2023-05-08T17:01:51;1.60;;;1.50;;
12848;SDS011;6493;50.928;7.172;2023-05-08T17:06:56;2.10;;;2.00;;
12848;SDS011;6493;50.928;7.172;2023-05-08T17:12:00;2.03;;;1.93;;
12848;SDS011;6493;50.928;7.172;2023-05-08T17:17:04;2.47;;;2.27;;
12848;SDS011;6493;50.928;7.172;2023-05-08T17:22:09;2.20;;;2.10;;
12848;SDS011;6493;50.928;7.172;2023-05-08T17:27:13;1.53;;;1.40;;
12848;SDS011;6493;50.928;7.172;2023-05-08T17:32:20;1.60;;;1.50;;
12848;SDS011;6493;50.928;7.172;2023-05-08T17:37:25;1.63;;;1.50;;
12848;SDS011;6493;50.928;7.172;2023-05-08T17:42:28;1.40;;;1.30;;
12848;SDS011;6493;50.928;7.172;2023-05-08T17:47:32;1.40;;;1.30;;
12848;SDS011;6493;50.928;7.172;2023-05-08T17:52:37;1.20;;;1.10;;
12848;SDS011;6493;50.928;7.172;2023-05-08T17:57:41;1.50;;;1.40;;
12848;SDS011;6493;50.928;7.172;2023-05-08T18:02:44;1.50;;;1.40;;
12848;SDS011;6493;50.928;7.172;2023-05-08T18:07:49;2.20;;;1.53;;
12848;SDS011;6493;50.928;7.172;2023-05-08T18:12:54;1.90;;;1.80;;
12848;SDS011;6493;50.928;7.172;2023-05-08T18:17:58;1.40;;;1.30;;
12848;SDS011;6493;50.928;7.172;2023-05-08T18:23:03;1.53;;;1.43;;
12848;SDS011;6493;50.928;7.172;2023-05-08T18:28:07;1.63;;;1.53;;
12848;SDS011;6493;50.928;7.172;2023-05-08T18:33:10;1.90;;;1.80;;
12848;SDS011;6493;50.928;7.172;2023-05-08T18:38:15;1.57;;;1.40;;
12848;SDS011;6493;50.928;7.172;2023-05-08T18:43:19;1.73;;;1.60;;
12848;SDS011;6493;50.928;7.172;2023-05-08T18:48:24;1.60;;;1.50;;
12848;SDS011;6493;50.928;7.172;2023-05-08T18:53:29;1.50;;;1.40;;
12848;SDS011;6493;50.928;7.172;2023-05-08T18:58:33;1.40;;;1.30;;
12848;SDS011;6493;50.928;7.172;2023-05-08T19:03:37;1.50;;;1.40;;
12848;SDS011;6493;50.928;7.172;2023-05-08T19:08:42;1.50;;;1.40;;
12848;SDS011;6493;50.928;7.172;2023-05-08T19:13:46;2.00;;;1.90;;
12848;SDS011;6493;50.928;7.172;2023-05-08T19:18:50;2.10;;;2.00;;
12848;SDS011;6493;50.928;7.172;2023-05-08T19:23:55;1.90;;;1.80;;
12848;SDS011;6493;50.928;7.172;2023-05-08T19:28:59;2.10;;;2.00;;
12848;SDS011;6493;50.928;7.172;2023-05-08T19:34:02;2.33;;;2.13;;
12848;SDS011;6493;50.928;7.172;2023-05-08T19:39:07;2.00;;;1.90;;
12848;SDS011;6493;50.928;7.172;2023-05-08T19:44:11;2.43;;;1.73;;
12848;SDS011;6493;50.928;7.172;2023-05-08T19:49:15;1.87;;;1.77;;
12848;SDS011;6493;50.928;7.172;2023-05-08T19:54:19;2.50;;;2.30;;
12848;SDS011;6493;50.928;7.172;2023-05-08T19:59:23;3.17;;;2.07;;
12848;SDS011;6493;50.928;7.172;2023-05-08T20:04:26;2.33;;;2.13;;
12848;SDS011;6493;50.928;7.172;2023-05-08T20:09:31;2.10;;;1.90;;
12848;SDS011;6493;50.928;7.172;2023-05-08T20:14:35;2.13;;;2.00;;
12848;SDS011;6493;50.928;7.172;2023-05-08T20:19:39;1.77;;;1.67;;
12848;SDS011;6493;50.928;7.172;2023-05-08T20:24:43;2.27;;;2.17;;
12848;SDS011;6493;50.928;7.172;2023-05-08T20:29:47;2.33;;;2.13;;
12848;SDS011;6493;50.928;7.172;2023-05-08T20:34:51;2.30;;;2.20;;
12848;SDS011;6493;50.928;7.172;2023-05-08T20:39:55;2.57;;;2.37;;
12848;SDS011;6493;50.928;7.172;2023-05-08T20:45:00;2.03;;;1.93;;
12848;SDS011;6493;50.928;7.172;2023-05-08T20:50:04;2.37;;;2.20;;
12848;SDS011;6493;50.928;7.172;2023-05-08T20:55:10;1.80;;;1.67;;
12848;SDS011;6493;50.928;7.172;2023-05-08T21:00:14;2.93;;;2.20;;
12848;SDS011;6493;50.928;7.172;2023-05-08T21:05:17;1.87;;;1.70;;
12848;SDS011;6493;50.928;7.172;2023-05-08T21:10:22;1.90;;;1.80;;
12848;SDS011;6493;50.928;7.172;2023-05-08T21:15:26;2.23;;;2.13;;
12848;SDS011;6493;50.928;7.172;2023-05-08T21:20:30;2.40;;;2.20;;
12848;SDS011;6493;50.928;7.172;2023-05-08T21:25:36;2.70;;;2.50;;
12848;SDS011;6493;50.928;7.172;2023-05-08T21:30:39;2.20;;;2.10;;
12848;SDS011;6493;50.928;7.172;2023-05-08T21:35:43;2.40;;;2.20;;
12848;SDS011;6493;50.928;7.172;2023-05-08T21:40:48;2.60;;;2.40;;
12848;SDS011;6493;50.928;7.172;2023-05-08T21:45:52;3.40;;;3.20;;
12848;SDS011;6493;50.928;7.172;2023-05-08T21:50:56;3.10;;;2.90;;
12848;SDS011;6493;50.928;7.172;2023-05-08T21:56:02;2.97;;;2.77;;
12848;SDS011;6493;50.928;7.172;2023-05-08T22:01:06;3.13;;;2.83;;
12848;SDS011;6493;50.928;7.172;2023-05-08T22:06:09;2.47;;;2.27;;
12848;SDS011;6493;50.928;7.172;2023-05-08T22:11:14;2.70;;;2.50;;
12848;SDS011;6493;50.928;7.172;2023-05-08T22:16:18;3.73;;;3.40;;
12848;SDS011;6493;50.928;7.172;2023-05-08T22:21:21;3.40;;;3.17;;
12848;SDS011;6493;50.928;7.172;2023-05-08T22:26:26;3.80;;;3.10;;
12848;SDS011;6493;50.928;7.172;2023-05-08T22:31:30;3.50;;;3.20;;
12848;SDS011;6493;50.928;7.172;2023-05-08T22:36:33;3.70;;;3.40;;
12848;SDS011;6493;50.928;7.172;2023-05-08T22:41:38;3.73;;;3.43;;
12848;SDS011;6493;50.928;7.172;2023-05-08T22:46:42;3.70;;;3.40;;
12848;SDS011;6493;50.928;7.172;2023-05-08T22:51:46;4.87;;;4.47;;
12848;SDS011;6493;50.928;7.172;2023-05-08T22:56:52;3.70;;;3.40;;
12848;SDS011;6493;50.928;7.172;2023-05-08T23:01:56;4.20;;;3.83;;
12848;SDS011;6493;50.928;7.172;2023-05-08T23:07:00;3.97;;;3.67;;
12848;SDS011;6493;50.928;7.172;2023-05-08T23:12:06;4.27;;;3.87;;
12848;SDS011;6493;50.928;7.172;2023-05-08T23:17:09;4.37;;;4.07;;
12848;SDS011;6493;50.928;7.172;2023-05-08T23:22:17;4.37;;;4.03;;
12848;SDS011;6493;50.928;7.172;2023-05-08T23:27:22;3.53;;;3.23;;
12848;SDS011;6493;50.928;7.172;2023-05-08T23:32:25;3.77;;;3.47;;
12848;SDS011;6493;50.928;7.172;2023-05-08T23:37:29;4.70;;;4.30;;
12848;SDS011;6493;50.928;7.172;2023-05-08T23:42:34;4.57;;;4.17;;
12848;SDS011;6493;50.928;7.172;2023-05-08T23:47:38;3.90;;;3.60;;
12848;SDS011;6493;50.928;7.172;2023-05-08T23:52:42;4.00;;;3.70;;
12848;SDS011;6493;50.928;7.172;2023-05-08T23:57:47;4.43;;;4.13;;
